createdAt,value
2023-05-07T00:03:02.464Z,1.88
2023-05-07T00:08:04.527Z,1.95
2023-05-07T00:13:06.111Z,1.48
2023-05-07T00:18:07.831Z,1.77
2023-05-07T00:23:10.302Z,1.90
2023-05-07T00:28:11.848Z,1.63
2023-05-07T00:33:13.591Z,1.80
2023-05-07T00:38:15.501Z,1.50
2023-05-07T00:43:17.256Z,2.22
2023-05-07T00:48:19.538Z,2.03
2023-05-07T00:53:21.714Z,1.83
2023-05-07T00:58:23.853Z,1.67
2023-05-07T01:03:25.379Z,1.85
2023-05-07T01:08:30.483Z,2.03
2023-05-07T01:13:32.361Z,1.90
2023-05-07T01:18:33.927Z,2.03
2023-05-07T01:23:36.959Z,2.03
2023-05-07T01:28:38.504Z,2.13
2023-05-07T01:33:43.620Z,1.80
2023-05-07T01:38:48.165Z,2.20
2023-05-07T01:43:52.867Z,2.05
2023-05-07T01:48:54.906Z,1.83
2023-05-07T01:53:56.596Z,1.85
2023-05-07T01:58:58.656Z,2.10
2023-05-07T02:04:00.635Z,1.98
2023-05-07T02:09:04.482Z,1.88
2023-05-07T02:14:06.491Z,2.00
2023-05-07T02:19:08.142Z,2.40
2023-05-07T02:24:09.853Z,2.33
2023-05-07T02:29:11.398Z,2.60
2023-05-07T02:34:14.204Z,2.38
2023-05-07T02:39:16.516Z,2.33
2023-05-07T02:44:18.170Z,2.30
2023-05-07T02:49:23.208Z,2.17
2023-05-07T02:54:24.949Z,2.38
2023-05-07T02:59:27.269Z,2.10
2023-05-07T03:04:29.096Z,2.10
2023-05-07T03:09:30.859Z,1.80
2023-05-07T03:14:32.433Z,2.15
2023-05-07T03:19:34.059Z,1.95
2023-05-07T03:24:35.863Z,2.20
2023-05-07T03:29:37.598Z,1.83
2023-05-07T03:34:39.441Z,2.35
2023-05-07T03:39:41.968Z,2.08
2023-05-07T03:44:44.101Z,2.00
2023-05-07T03:49:45.936Z,2.17
2023-05-07T03:54:49.243Z,2.60
2023-05-07T03:59:51.689Z,2.58
2023-05-07T04:04:53.465Z,2.50
2023-05-07T04:09:55.946Z,2.38
2023-05-07T04:14:57.754Z,2.38
2023-05-07T04:19:59.584Z,2.30
2023-05-07T04:25:02.209Z,2.90
2023-05-07T04:30:04.720Z,2.85
2023-05-07T04:35:11.205Z,2.85
2023-05-07T04:40:14.239Z,2.90
2023-05-07T04:45:17.266Z,2.80
2023-05-07T04:50:21.022Z,2.30
2023-05-07T04:55:24.183Z,2.00
2023-05-07T05:00:26.252Z,2.08
2023-05-07T05:05:29.377Z,3.78
2023-05-07T05:10:31.038Z,5.60
2023-05-07T05:15:34.066Z,4.03
2023-05-07T05:20:36.980Z,3.30
2023-05-07T05:25:40.329Z,2.33
2023-05-07T05:30:43.734Z,2.65
2023-05-07T05:35:45.939Z,2.30
2023-05-07T05:40:48.641Z,1.75
2023-05-07T05:45:50.888Z,2.00
2023-05-07T05:50:52.584Z,1.95
2023-05-07T05:55:54.628Z,2.00
2023-05-07T06:00:57.552Z,1.98
2023-05-07T06:06:01.523Z,2.17
2023-05-07T06:11:04.028Z,1.77
2023-05-07T06:16:08.622Z,1.90
2023-05-07T06:21:11.160Z,1.80
2023-05-07T06:26:13.348Z,1.35
2023-05-07T06:31:22.708Z,1.38
2023-05-07T06:36:36.042Z,1.50
2023-05-07T06:41:45.826Z,1.45
2023-05-07T06:46:58.033Z,1.45
2023-05-07T06:51:59.647Z,1.77
2023-05-07T06:57:01.686Z,1.60
2023-05-07T07:02:04.280Z,1.98
2023-05-07T07:07:05.912Z,2.17
2023-05-07T07:12:07.666Z,2.10
2023-05-07T07:17:12.000Z,1.85
2023-05-07T07:22:13.871Z,1.95
2023-05-07T07:27:21.142Z,1.92
2023-05-07T07:32:22.823Z,1.70
2023-05-07T07:37:26.657Z,1.65
2023-05-07T07:42:30.192Z,2.28
2023-05-07T07:47:32.605Z,2.00
2023-05-07T07:52:34.882Z,2.15
2023-05-07T07:57:36.678Z,2.30
2023-05-07T08:02:38.898Z,2.20
2023-05-07T08:07:40.662Z,2.42
2023-05-07T08:12:42.748Z,2.47
2023-05-07T08:17:44.989Z,2.30
2023-05-07T08:22:46.835Z,2.50
2023-05-07T08:27:48.542Z,2.35
2023-05-07T08:32:51.104Z,2.70
2023-05-07T08:37:52.824Z,2.65
2023-05-07T08:42:57.452Z,2.72
2023-05-07T08:48:02.654Z,3.90
2023-05-07T08:53:08.402Z,2.75
2023-05-07T08:58:10.306Z,2.83
2023-05-07T09:03:15.912Z,2.53
2023-05-07T09:08:26.054Z,3.00
2023-05-07T09:13:31.460Z,2.55
2023-05-07T09:18:35.076Z,3.22
2023-05-07T09:23:37.150Z,2.55
2023-05-07T09:28:40.945Z,2.70
2023-05-07T09:33:43.519Z,2.70
2023-05-07T09:38:47.398Z,2.30
2023-05-07T09:43:55.571Z,2.97
2023-05-07T09:49:03.002Z,2.78
2023-05-07T09:54:08.217Z,2.25
2023-05-07T09:59:15.592Z,2.20
2023-05-07T10:04:18.558Z,2.33
2023-05-07T10:09:22.276Z,2.58
2023-05-07T10:14:24.919Z,2.60
2023-05-07T10:19:27.472Z,2.13
2023-05-07T10:24:35.123Z,2.58
2023-05-07T10:30:09.814Z,2.10
2023-05-07T10:35:22.677Z,1.73
2023-05-07T10:40:25.467Z,2.15
2023-05-07T10:45:30.041Z,2.20
2023-05-07T10:50:34.617Z,2.42
2023-05-07T10:55:38.521Z,2.78
2023-05-07T11:00:45.727Z,2.50
2023-05-07T11:06:15.314Z,2.00
2023-05-07T11:11:57.375Z,2.00
2023-05-07T11:17:10.459Z,2.17
2023-05-07T11:22:31.295Z,1.98
2023-05-07T11:27:42.919Z,1.88
2023-05-07T11:32:47.853Z,2.10
2023-05-07T11:37:58.797Z,1.98
2023-05-07T11:43:11.813Z,1.77
2023-05-07T11:48:14.659Z,1.65
2023-05-07T11:53:18.154Z,2.10
2023-05-07T11:58:25.234Z,1.75
2023-05-07T12:03:29.574Z,1.83
2023-05-07T12:08:32.674Z,1.77
2023-05-07T12:13:34.204Z,1.67
2023-05-07T12:18:37.577Z,1.35
2023-05-07T12:23:39.533Z,1.75
2023-05-07T12:28:41.160Z,2.40
2023-05-07T12:33:43.301Z,1.70
2023-05-07T12:38:44.857Z,1.88
2023-05-07T12:43:47.066Z,2.05
2023-05-07T12:48:49.495Z,1.98
2023-05-07T12:53:51.068Z,2.25
2023-05-07T12:58:52.590Z,1.90
2023-05-07T13:03:54.273Z,1.80
2023-05-07T13:08:55.908Z,2.53
2023-05-07T13:13:57.422Z,2.28
2023-05-07T13:18:59.291Z,2.22
2023-05-07T13:24:00.892Z,2.35
2023-05-07T13:29:02.502Z,2.20
2023-05-07T13:34:04.047Z,2.00
2023-05-07T13:39:05.619Z,2.58
2023-05-07T13:44:07.159Z,2.60
2023-05-07T13:49:08.804Z,3.15
2023-05-07T13:54:10.477Z,3.00
2023-05-07T13:59:13.519Z,2.53
2023-05-07T14:04:15.167Z,2.95
2023-05-07T14:09:16.870Z,1.00
2023-05-07T14:14:19.248Z,0.80
2023-05-07T14:19:20.873Z,0.70
2023-05-07T14:24:34.856Z,0.70
2023-05-07T14:29:39.522Z,0.60
2023-05-07T14:34:41.114Z,0.77
2023-05-07T14:39:42.671Z,0.65
2023-05-07T14:44:45.776Z,0.70
2023-05-07T14:49:47.357Z,0.93
2023-05-07T14:54:48.880Z,0.93
2023-05-07T14:59:50.505Z,0.70
2023-05-07T15:04:52.059Z,0.60
2023-05-07T15:09:53.733Z,0.82
2023-05-07T15:14:55.339Z,0.85
2023-05-07T15:19:56.944Z,1.00
2023-05-07T15:24:59.786Z,1.00
2023-05-07T15:30:01.930Z,0.95
2023-05-07T15:35:04.762Z,1.17
2023-05-07T15:40:08.048Z,1.20
2023-05-07T15:45:10.824Z,1.00
2023-05-07T15:50:12.622Z,0.88
2023-05-07T15:55:15.017Z,1.20
2023-05-07T16:00:17.966Z,1.17
2023-05-07T16:05:19.550Z,1.20
2023-05-07T16:10:21.140Z,1.65
2023-05-07T16:15:22.790Z,1.33
2023-05-07T16:20:29.983Z,1.38
2023-05-07T16:25:32.096Z,1.30
2023-05-07T16:30:33.916Z,1.60
2023-05-07T16:35:35.703Z,1.40
2023-05-07T16:40:40.473Z,1.60
2023-05-07T16:45:42.176Z,1.75
2023-05-07T16:50:44.546Z,1.80
2023-05-07T16:55:46.097Z,1.90
2023-05-07T17:00:51.036Z,2.10
2023-05-07T17:05:53.252Z,2.70
2023-05-07T17:10:54.840Z,1.90
2023-05-07T17:15:56.459Z,1.70
2023-05-07T17:20:58.144Z,2.28
2023-05-07T17:25:59.736Z,1.88
2023-05-07T17:31:01.338Z,2.03
2023-05-07T17:36:03.304Z,2.10
2023-05-07T17:41:07.294Z,2.40
2023-05-07T17:46:09.855Z,2.20
2023-05-07T17:51:11.555Z,2.25
2023-05-07T17:56:13.135Z,2.95
2023-05-07T18:01:14.764Z,3.42
2023-05-07T18:06:19.117Z,2.58
2023-05-07T18:11:21.865Z,3.10
2023-05-07T18:16:23.685Z,3.70
2023-05-07T18:21:25.405Z,3.78
2023-05-07T18:26:27.007Z,3.80
2023-05-07T18:31:28.688Z,4.15
2023-05-07T18:36:30.653Z,4.30
2023-05-07T18:41:32.320Z,4.10
2023-05-07T18:46:34.048Z,3.72
2023-05-07T18:51:35.784Z,4.60
2023-05-07T18:56:37.341Z,4.57
2023-05-07T19:01:39.012Z,5.00
2023-05-07T19:06:40.695Z,4.95
2023-05-07T19:11:42.470Z,4.75
2023-05-07T19:16:44.134Z,5.45
2023-05-07T19:21:45.817Z,6.28
2023-05-07T19:26:47.348Z,5.28
2023-05-07T19:31:48.951Z,5.55
2023-05-07T19:36:51.284Z,5.70
2023-05-07T19:41:52.817Z,5.70
2023-05-07T19:46:54.425Z,6.95
2023-05-07T19:51:57.181Z,7.10
2023-05-07T19:56:58.841Z,6.40
2023-05-07T20:02:00.563Z,7.35
2023-05-07T20:07:02.152Z,7.07
2023-05-07T20:12:03.942Z,7.18
2023-05-07T20:17:05.496Z,7.07
2023-05-07T20:22:07.060Z,5.95
2023-05-07T20:27:09.192Z,5.80
2023-05-07T20:32:10.829Z,6.28
2023-05-07T20:37:15.816Z,7.07
2023-05-07T20:42:17.518Z,7.47
2023-05-07T20:47:19.145Z,7.85
2023-05-07T20:52:21.156Z,7.38
2023-05-07T20:57:23.078Z,8.48
2023-05-07T21:02:24.735Z,8.48
2023-05-07T21:07:26.357Z,7.25
2023-05-07T21:12:28.070Z,6.53
2023-05-07T21:17:31.749Z,6.75
2023-05-07T21:22:33.657Z,6.53
2023-05-07T21:27:35.193Z,7.15
2023-05-07T21:32:36.775Z,8.18
2023-05-07T21:37:38.653Z,7.55
2023-05-07T21:42:40.208Z,8.43
2023-05-07T21:47:41.830Z,9.68
2023-05-07T21:52:43.425Z,10.15
2023-05-07T21:57:50.885Z,9.05
2023-05-07T22:03:03.527Z,10.20
2023-05-07T22:08:05.423Z,7.25
2023-05-07T22:13:06.979Z,6.70
2023-05-07T22:18:08.613Z,4.95
2023-05-07T22:23:10.377Z,5.07
2023-05-07T22:28:11.965Z,5.80
2023-05-07T22:33:13.487Z,8.13
2023-05-07T22:38:15.043Z,7.20
2023-05-07T22:43:16.591Z,5.70
2023-05-07T22:48:18.143Z,6.03
2023-05-07T22:53:20.181Z,5.30
2023-05-07T22:58:21.779Z,5.93
2023-05-07T23:03:23.679Z,5.22
2023-05-07T23:08:25.521Z,5.00
2023-05-07T23:13:27.616Z,5.07
2023-05-07T23:18:30.346Z,4.97
2023-05-07T23:23:34.348Z,5.38
2023-05-07T23:28:35.986Z,5.22
2023-05-07T23:33:38.878Z,4.95
2023-05-07T23:38:40.452Z,6.32
2023-05-07T23:43:42.044Z,6.25
2023-05-07T23:48:43.567Z,7.10
2023-05-07T23:53:45.808Z,9.30
2023-05-07T23:58:47.380Z,10.73
